Time;durP1;ratioP1;P1;durP2;ratioP2;P2;SDS_P1;SDS_P2;PMS_P1;PMS_P2;Temp;Humidity;BMP_temperature;BMP_pressure;BME280_temperature;BME280_humidity;BME280_pressure;Samples;Min_cycle;Max_cycle;Signal;HPM_P1;HPM_P2
2023/12/02 00:02:17;;;;;;;1.17;1.10;;;-6.30;99.90;;;;;;5066759;28;20574;-67
2023/12/02 00:04:42;;;;;;;0.80;0.80;;;-6.30;99.90;;;;;;5068357;28;20672;-68
2023/12/02 00:07:09;;;;;;;0.70;0.70;;;-6.30;99.90;;;;;;5071604;28;20605;-68
2023/12/02 00:09:35;;;;;;;0.90;0.90;;;-6.30;99.90;;;;;;5071431;28;20683;-65
2023/12/02 00:12:01;;;;;;;1.30;1.20;;;-6.30;99.90;;;;;;5071615;28;20185;-69
2023/12/02 00:14:27;;;;;;;0.80;0.80;;;-6.30;99.90;;;;;;5063420;28;20205;-67
2023/12/02 00:16:52;;;;;;;0.80;0.80;;;-6.40;99.90;;;;;;5071580;28;20191;-66
2023/12/02 00:19:18;;;;;;;0.80;0.80;;;-6.30;99.90;;;;;;5071501;28;20566;-68
2023/12/02 00:21:44;;;;;;;0.90;0.90;;;-6.40;99.90;;;;;;5071473;28;20201;-65
2023/12/02 00:24:09;;;;;;;0.70;0.70;;;-6.40;99.90;;;;;;5071978;28;20201;-66
2023/12/02 00:26:35;;;;;;;0.80;0.80;;;-6.40;99.90;;;;;;5071266;28;20250;-68
2023/12/02 00:29:01;;;;;;;1.07;1.07;;;-6.30;99.90;;;;;;5071345;28;20292;-67
2023/12/02 00:31:26;;;;;;;0.90;0.90;;;-6.40;99.90;;;;;;5071182;28;20196;-67
2023/12/02 00:33:52;;;;;;;0.90;0.90;;;-6.30;99.90;;;;;;5071226;28;20243;-68
2023/12/02 00:36:18;;;;;;;3.63;1.40;;;-6.40;99.90;;;;;;5071920;28;20239;-72
2023/12/02 00:38:43;;;;;;;0.80;0.80;;;-6.40;99.90;;;;;;5070720;28;20208;-73
2023/12/02 00:41:10;;;;;;;0.90;0.90;;;-6.40;99.90;;;;;;5069746;28;20201;-73
2023/12/02 00:43:36;;;;;;;0.90;0.90;;;-6.40;99.90;;;;;;5070992;28;20246;-73
2023/12/02 00:46:01;;;;;;;0.80;0.80;;;-6.40;99.90;;;;;;5071044;28;20200;-73
2023/12/02 00:48:27;;;;;;;0.90;0.90;;;-6.40;99.90;;;;;;5070878;28;20276;-73
2023/12/02 00:50:53;;;;;;;0.90;0.90;;;-6.40;99.90;;;;;;5070977;28;20219;-73
2023/12/02 00:53:19;;;;;;;0.80;0.80;;;-6.40;99.90;;;;;;5070579;28;20221;-72
2023/12/02 00:55:44;;;;;;;0.80;0.80;;;-6.40;99.90;;;;;;5070839;28;20240;-72
2023/12/02 00:58:10;;;;;;;0.80;0.80;;;-6.40;99.90;;;;;;5071032;28;20197;-74
2023/12/02 01:00:35;;;;;;;0.83;0.83;;;-6.40;99.90;;;;;;5070774;28;20243;-72
2023/12/02 01:03:01;;;;;;;0.90;0.90;;;-6.40;99.90;;;;;;5070820;28;20208;-73
2023/12/02 01:05:27;;;;;;;0.80;0.80;;;-6.40;99.90;;;;;;5070736;28;20222;-73
2023/12/02 01:07:52;;;;;;;0.90;0.90;;;-6.40;99.90;;;;;;5070654;28;20193;-72
2023/12/02 01:10:18;;;;;;;0.80;0.80;;;-6.40;99.90;;;;;;5063028;28;20201;-72
2023/12/02 01:12:44;;;;;;;0.80;0.80;;;-6.50;99.90;;;;;;5068271;28;20276;-72
2023/12/02 01:15:10;;;;;;;0.85;0.85;;;-6.50;99.90;;;;;;5069362;28;20211;-73
2023/12/02 01:17:35;;;;;;;0.87;0.87;;;-6.50;99.90;;;;;;5070247;28;20189;-73
2023/12/02 01:20:01;;;;;;;0.87;0.87;;;-6.40;99.90;;;;;;5070539;28;20200;-72
2023/12/02 01:22:27;;;;;;;0.80;0.80;;;-6.40;99.90;;;;;;5070425;28;20246;-73
2023/12/02 01:24:52;;;;;;;0.80;0.80;;;-6.40;99.90;;;;;;5068919;28;20291;-73
2023/12/02 01:27:18;;;;;;;0.90;0.90;;;-6.40;99.90;;;;;;5070264;28;20239;-73
2023/12/02 01:29:44;;;;;;;0.83;0.83;;;-6.40;99.90;;;;;;5069897;28;20211;-72
2023/12/02 01:32:10;;;;;;;0.90;0.90;;;-6.50;99.90;;;;;;5070067;28;20228;-72
2023/12/02 01:34:36;;;;;;;0.80;0.80;;;-6.50;99.90;;;;;;5069917;28;20220;-73
2023/12/02 01:37:01;;;;;;;0.90;0.90;;;-6.50;99.90;;;;;;5070137;28;20200;-72
2023/12/02 01:39:27;;;;;;;1.17;1.10;;;-6.50;99.90;;;;;;5069839;28;20207;-73
2023/12/02 01:41:53;;;;;;;0.90;0.90;;;-6.50;99.90;;;;;;5059017;28;20220;-73
2023/12/02 01:44:18;;;;;;;0.80;0.80;;;-6.40;99.90;;;;;;5049923;28;20230;-71
2023/12/02 01:46:44;;;;;;;0.70;0.70;;;-6.50;99.90;;;;;;5049923;28;20216;-68
2023/12/02 01:49:10;;;;;;;0.80;0.80;;;-6.50;99.90;;;;;;5059314;28;20213;-67
2023/12/02 01:51:36;;;;;;;0.90;0.90;;;-6.50;99.90;;;;;;5069419;28;20227;-67
2023/12/02 01:54:03;;;;;;;0.80;0.80;;;-6.40;99.90;;;;;;5069631;28;20192;-67
2023/12/02 01:56:28;;;;;;;0.90;0.90;;;-6.50;99.90;;;;;;5069531;28;20664;-67
2023/12/02 01:58:54;;;;;;;0.80;0.80;;;-6.50;99.90;;;;;;5069594;28;20193;-66
2023/12/02 02:01:20;;;;;;;0.90;0.90;;;-6.50;99.90;;;;;;5052895;28;20206;-66
2023/12/02 02:03:48;;;;;;;0.80;0.80;;;-6.50;99.90;;;;;;5049546;28;20248;-67
2023/12/02 02:06:14;;;;;;;0.80;0.80;;;-6.50;99.90;;;;;;5049383;28;20197;-67
2023/12/02 02:08:40;;;;;;;0.90;0.90;;;-6.40;99.90;;;;;;5063957;28;20243;-66
2023/12/02 02:11:06;;;;;;;0.80;0.80;;;-6.40;99.90;;;;;;5069283;28;20181;-66
2023/12/02 02:13:33;;;;;;;0.80;0.80;;;-6.40;99.90;;;;;;5069312;28;20280;-66
2023/12/02 02:15:59;;;;;;;0.80;0.80;;;-6.40;99.90;;;;;;5069437;28;20270;-66
2023/12/02 02:18:25;;;;;;;0.80;0.80;;;-6.40;99.90;;;;;;5069114;28;20681;-70
2023/12/02 02:20:52;;;;;;;0.90;0.90;;;-6.40;99.90;;;;;;5067150;28;20287;-68
2023/12/02 02:23:19;;;;;;;0.73;0.73;;;-6.50;99.90;;;;;;5068727;28;20569;-68
2023/12/02 02:25:45;;;;;;;0.90;0.90;;;-6.50;99.90;;;;;;5069446;28;20734;-69
2023/12/02 02:28:11;;;;;;;0.80;0.80;;;-6.40;99.90;;;;;;5067042;28;20209;-66
2023/12/02 02:30:37;;;;;;;0.80;0.80;;;-6.50;99.90;;;;;;5068830;28;20189;-67
2023/12/02 02:33:02;;;;;;;0.73;0.73;;;-6.50;99.90;;;;;;5069105;28;20196;-66
2023/12/02 02:35:28;;;;;;;0.87;0.87;;;-6.50;99.90;;;;;;5068957;28;20278;-69
2023/12/02 02:37:54;;;;;;;0.93;0.93;;;-6.50;99.90;;;;;;5068714;28;20656;-66
2023/12/02 02:40:19;;;;;;;0.80;0.80;;;-6.40;99.90;;;;;;5068685;28;20196;-68
2023/12/02 02:42:45;;;;;;;0.83;0.83;;;-6.50;99.90;;;;;;5069108;28;20197;-67
2023/12/02 02:45:11;;;;;;;0.90;0.90;;;-6.50;99.90;;;;;;5067451;28;20214;-66
2023/12/02 02:47:37;;;;;;;0.80;0.80;;;-6.50;99.90;;;;;;5068856;28;20203;-68
2023/12/02 02:50:03;;;;;;;0.80;0.80;;;-6.50;99.90;;;;;;5067317;28;20266;-66
2023/12/02 02:52:28;;;;;;;0.80;0.80;;;-6.50;99.90;;;;;;5068854;28;20217;-66
2023/12/02 02:54:54;;;;;;;0.90;0.90;;;-6.50;99.90;;;;;;5069247;28;20193;-66
2023/12/02 02:57:20;;;;;;;0.80;0.80;;;-6.50;99.90;;;;;;5067521;28;20295;-68
2023/12/02 02:59:46;;;;;;;0.80;0.80;;;-6.50;99.90;;;;;;5069001;28;20660;-69
2023/12/02 03:02:12;;;;;;;0.70;0.70;;;-6.50;99.90;;;;;;5067827;28;20203;-68
2023/12/02 03:04:38;;;;;;;0.90;0.90;;;-6.50;99.90;;;;;;5061357;28;20193;-67
2023/12/02 03:07:04;;;;;;;0.80;0.80;;;-6.60;99.90;;;;;;5068547;28;20612;-68
2023/12/02 03:09:30;;;;;;;0.80;0.80;;;-6.60;99.90;;;;;;5067227;28;20247;-69
2023/12/02 03:11:56;;;;;;;0.90;0.90;;;-6.60;99.90;;;;;;5068698;28;20715;-68
2023/12/02 03:14:22;;;;;;;0.80;0.80;;;-6.50;99.90;;;;;;5067517;28;20247;-70
2023/12/02 03:16:48;;;;;;;0.90;0.90;;;-6.50;99.90;;;;;;5068626;28;20770;-68
2023/12/02 03:19:14;;;;;;;0.93;0.93;;;-6.50;99.90;;;;;;5068449;28;20225;-69
2023/12/02 03:21:40;;;;;;;0.80;0.80;;;-6.50;99.90;;;;;;5068646;28;20196;-67
2023/12/02 03:24:06;;;;;;;0.80;0.80;;;-6.50;99.90;;;;;;5068506;28;20242;-68
2023/12/02 03:26:35;;;;;;;0.90;0.90;;;-6.50;99.90;;;;;;5068273;28;20207;-69
2023/12/02 03:29:01;;;;;;;0.90;0.90;;;-6.50;99.90;;;;;;5068580;28;20208;-68
2023/12/02 03:31:26;;;;;;;0.80;0.80;;;-6.50;99.90;;;;;;5068278;28;20189;-69
2023/12/02 03:33:52;;;;;;;0.90;0.90;;;-6.60;99.90;;;;;;5068228;28;20204;-68
2023/12/02 03:36:18;;;;;;;0.90;0.90;;;-6.60;99.90;;;;;;5068472;28;20193;-70
2023/12/02 03:38:43;;;;;;;0.90;0.90;;;-6.60;99.90;;;;;;5068100;28;20652;-68
2023/12/02 03:41:09;;;;;;;0.70;0.70;;;-6.60;99.90;;;;;;5072245;28;20226;-68
2023/12/02 03:43:35;;;;;;;0.83;0.83;;;-6.60;99.90;;;;;;5072140;28;20311;-68
2023/12/02 03:46:02;;;;;;;0.90;0.90;;;-6.60;99.90;;;;;;5072229;28;20192;-68
2023/12/02 03:48:27;;;;;;;0.80;0.80;;;-6.60;99.90;;;;;;5071901;28;20208;-68
2023/12/02 03:50:54;;;;;;;0.80;0.80;;;-6.60;99.90;;;;;;5072261;28;20185;-68
2023/12/02 03:53:20;;;;;;;0.90;0.90;;;-6.60;99.90;;;;;;5071839;28;20692;-69
2023/12/02 03:55:46;;;;;;;0.90;0.90;;;-6.60;99.90;;;;;;5072156;28;20196;-68
2023/12/02 03:58:12;;;;;;;0.90;0.90;;;-6.60;99.90;;;;;;5070542;28;20196;-68
2023/12/02 04:00:37;;;;;;;0.80;0.80;;;-6.70;99.90;;;;;;5058443;28;20569;-69
2023/12/02 04:03:03;;;;;;;1.10;1.10;;;-6.60;99.90;;;;;;5067315;28;20273;-68
2023/12/02 04:05:29;;;;;;;0.90;0.90;;;-6.60;99.90;;;;;;5070343;28;20334;-68
2023/12/02 04:07:54;;;;;;;0.90;0.90;;;-6.60;99.90;;;;;;5070832;28;21100;-67
2023/12/02 04:10:20;;;;;;;0.80;0.80;;;-6.70;99.90;;;;;;5071713;28;20189;-69
2023/12/02 04:12:46;;;;;;;0.80;0.80;;;-6.70;99.90;;;;;;5070461;28;20196;-66
2023/12/02 04:15:12;;;;;;;0.90;0.90;;;-6.70;99.90;;;;;;5071730;28;20832;-66
2023/12/02 04:17:37;;;;;;;0.80;0.80;;;-6.70;99.90;;;;;;5070131;28;20201;-66
2023/12/02 04:20:08;;;;;;;0.83;0.83;;;-6.70;99.90;;;;;;5069866;28;20229;-67
2023/12/02 04:22:35;;;;;;;0.80;0.80;;;-6.70;99.90;;;;;;5069879;28;20200;-66
2023/12/02 04:25:00;;;;;;;0.90;0.90;;;-6.70;99.90;;;;;;5071568;28;20208;-67
2023/12/02 04:27:26;;;;;;;0.90;0.90;;;-6.70;99.90;;;;;;5071645;28;20197;-72
2023/12/02 04:29:52;;;;;;;0.90;0.90;;;-6.70;99.90;;;;;;5066489;28;20231;-71
2023/12/02 04:32:17;;;;;;;0.80;0.80;;;-6.70;99.90;;;;;;5051696;28;20251;-70
2023/12/02 04:34:43;;;;;;;0.90;0.90;;;-6.70;99.90;;;;;;5051143;28;20204;-71
2023/12/02 04:37:09;;;;;;;0.80;0.80;;;-6.80;99.90;;;;;;5055985;28;20228;-71
2023/12/02 04:39:34;;;;;;;0.73;0.73;;;-6.80;99.90;;;;;;5071054;28;20227;-71
2023/12/02 04:42:00;;;;;;;1.40;1.30;;;-6.70;99.90;;;;;;5071226;28;20193;-71
2023/12/02 04:44:26;;;;;;;0.80;0.80;;;-6.70;99.90;;;;;;5071229;28;20259;-71
2023/12/02 04:46:51;;;;;;;0.90;0.90;;;-6.80;99.90;;;;;;5071348;28;20203;-71
2023/12/02 04:49:17;;;;;;;0.80;0.80;;;-6.80;99.90;;;;;;5071332;28;20292;-71
2023/12/02 04:51:43;;;;;;;0.80;0.80;;;-6.80;99.90;;;;;;5069830;28;20624;-71
2023/12/02 04:54:09;;;;;;;1.50;1.40;;;-6.80;99.90;;;;;;5071080;28;20189;-71
2023/12/02 04:56:35;;;;;;;0.87;0.87;;;-6.90;99.90;;;;;;5062268;28;20235;-69
2023/12/02 04:59:01;;;;;;;0.80;0.80;;;-6.90;99.90;;;;;;5070939;28;20196;-71
2023/12/02 05:01:27;;;;;;;0.80;0.80;;;-6.90;99.90;;;;;;5070828;28;20196;-70
2023/12/02 05:03:52;;;;;;;0.87;0.87;;;-6.90;99.90;;;;;;5070887;28;20204;-70
2023/12/02 05:06:18;;;;;;;0.90;0.90;;;-6.90;99.90;;;;;;5070930;28;20258;-70
2023/12/02 05:08:44;;;;;;;0.90;0.90;;;-6.90;99.90;;;;;;5070266;28;20256;-70
2023/12/02 05:11:17;;;;;;;0.80;0.80;;;-6.90;99.90;;;;;;5070671;28;20531;-71
2023/12/02 05:13:43;;;;;;;0.80;0.80;;;-6.90;99.90;;;;;;5069506;28;20269;-71
2023/12/02 05:16:09;;;;;;;0.87;0.87;;;-6.90;99.90;;;;;;5070924;28;20197;-70
2023/12/02 05:18:34;;;;;;;0.90;0.90;;;-6.90;99.90;;;;;;5069102;28;20625;-67
2023/12/02 05:21:00;;;;;;;0.90;0.90;;;-6.90;99.90;;;;;;5070849;28;20228;-66
2023/12/02 05:23:26;;;;;;;0.90;0.90;;;-7.00;99.90;;;;;;5070425;28;20318;-66
2023/12/02 05:25:51;;;;;;;0.87;0.87;;;-7.00;99.90;;;;;;5067784;28;20718;-66
2023/12/02 05:28:18;;;;;;;0.80;0.80;;;-7.00;99.90;;;;;;5049967;28;20201;-66
2023/12/02 05:30:45;;;;;;;0.90;0.90;;;-7.00;99.90;;;;;;5050330;28;20418;-66
2023/12/02 05:33:12;;;;;;;0.70;0.70;;;-7.00;99.90;;;;;;5051618;28;21045;-66
2023/12/02 05:35:37;;;;;;;0.70;0.70;;;-7.00;99.90;;;;;;5070005;28;20258;-66
2023/12/02 05:38:03;;;;;;;1.00;1.00;;;-7.00;99.90;;;;;;5069892;28;20247;-67
2023/12/02 05:40:29;;;;;;;0.90;0.90;;;-6.90;99.90;;;;;;5069812;28;20213;-67
2023/12/02 05:42:54;;;;;;;0.90;0.90;;;-7.00;99.90;;;;;;5070147;28;20598;-66
2023/12/02 05:45:20;;;;;;;0.80;0.80;;;-7.00;99.90;;;;;;5069929;28;20200;-66
2023/12/02 05:47:45;;;;;;;0.90;0.90;;;-7.00;99.90;;;;;;5069875;28;20199;-66
2023/12/02 05:50:11;;;;;;;0.83;0.83;;;-7.00;99.90;;;;;;5069793;28;20300;-66
2023/12/02 05:52:37;;;;;;;0.80;0.80;;;-7.00;99.90;;;;;;5060752;28;20852;-67
2023/12/02 05:55:03;;;;;;;0.90;0.90;;;-7.00;99.90;;;;;;5069882;28;20290;-66
2023/12/02 05:57:28;;;;;;;0.80;0.80;;;-7.10;99.90;;;;;;5069528;28;20556;-66
2023/12/02 05:59:54;;;;;;;0.93;0.93;;;-7.10;99.90;;;;;;5069507;28;20221;-67
2023/12/02 06:02:19;;;;;;;0.90;0.90;;;-7.10;99.90;;;;;;5069737;28;20547;-66
2023/12/02 06:04:45;;;;;;;0.90;0.90;;;-7.10;99.90;;;;;;5068453;28;20581;-67
2023/12/02 06:07:11;;;;;;;0.80;0.80;;;-7.10;99.90;;;;;;5069396;28;20763;-66
2023/12/02 06:09:40;;;;;;;0.80;0.80;;;-7.10;99.90;;;;;;5067955;28;20220;-67
2023/12/02 06:12:06;;;;;;;0.80;0.80;;;-7.10;99.90;;;;;;5067783;28;20196;-66
2023/12/02 06:14:32;;;;;;;0.90;0.90;;;-7.10;99.90;;;;;;5069185;28;20280;-68
2023/12/02 06:16:58;;;;;;;0.80;0.80;;;-7.10;99.90;;;;;;5069817;28;20569;-67
2023/12/02 06:19:23;;;;;;;0.90;0.90;;;-7.10;99.90;;;;;;5069055;28;20672;-69
2023/12/02 06:21:49;;;;;;;0.80;0.80;;;-7.10;99.90;;;;;;5068911;28;20234;-66
2023/12/02 06:24:15;;;;;;;0.90;0.90;;;-7.10;99.90;;;;;;5047952;28;20296;-67
2023/12/02 06:26:40;;;;;;;0.80;0.80;;;-7.10;99.90;;;;;;5047811;28;20688;-71
2023/12/02 06:29:06;;;;;;;0.90;0.90;;;-7.10;99.90;;;;;;5049027;28;20201;-71
2023/12/02 06:31:33;;;;;;;0.80;0.80;;;-7.10;99.90;;;;;;5067899;28;20681;-71
2023/12/02 06:33:58;;;;;;;0.80;0.80;;;-7.10;99.90;;;;;;5069162;28;20280;-71
2023/12/02 06:36:24;;;;;;;0.90;0.90;;;-7.20;99.90;;;;;;5069003;28;20280;-70
2023/12/02 06:38:50;;;;;;;0.90;0.90;;;-7.10;99.90;;;;;;5069780;28;20565;-71
2023/12/02 06:41:15;;;;;;;0.80;0.80;;;-7.20;99.90;;;;;;5069017;28;20574;-71
2023/12/02 06:43:41;;;;;;;0.83;0.83;;;-7.20;99.90;;;;;;5068964;28;20656;-70
2023/12/02 06:46:07;;;;;;;0.80;0.80;;;-7.30;99.90;;;;;;5068834;28;20193;-71
2023/12/02 06:48:33;;;;;;;0.90;0.90;;;-7.30;99.90;;;;;;5068358;28;20201;-71
2023/12/02 06:50:58;;;;;;;0.90;0.90;;;-7.20;99.90;;;;;;5068712;28;20189;-71
2023/12/02 06:53:24;;;;;;;0.90;0.90;;;-7.30;99.90;;;;;;5068953;28;20266;-71
2023/12/02 06:55:49;;;;;;;0.73;0.73;;;-7.30;99.90;;;;;;5068921;28;20676;-71
2023/12/02 06:58:15;;;;;;;0.80;0.80;;;-7.30;99.90;;;;;;5068775;28;20204;-71
2023/12/02 07:00:41;;;;;;;0.83;0.83;;;-7.40;99.90;;;;;;5067378;28;20204;-71
2023/12/02 07:03:08;;;;;;;0.80;0.80;;;-7.40;99.90;;;;;;5068552;28;20195;-71
2023/12/02 07:05:34;;;;;;;0.90;0.90;;;-7.40;99.90;;;;;;5068598;28;20193;-71
2023/12/02 07:08:00;;;;;;;0.90;0.90;;;-7.40;99.90;;;;;;5067207;28;20205;-71
2023/12/02 07:10:26;;;;;;;0.90;0.90;;;-7.40;99.90;;;;;;5068507;28;20192;-70
2023/12/02 07:12:52;;;;;;;0.73;0.73;;;-7.40;99.90;;;;;;5068828;28;20261;-71
2023/12/02 07:15:17;;;;;;;0.97;0.97;;;-7.40;99.90;;;;;;5073481;28;20668;-72
2023/12/02 07:17:43;;;;;;;0.80;0.80;;;-7.40;99.90;;;;;;5075186;28;20188;-71
2023/12/02 07:20:09;;;;;;;1.00;1.00;;;-7.50;99.90;;;;;;5057621;28;20601;-71
2023/12/02 07:22:35;;;;;;;0.83;0.83;;;-7.40;99.90;;;;;;5053887;28;20197;-71
2023/12/02 07:25:00;;;;;;;0.70;0.70;;;-7.40;99.90;;;;;;5055387;28;20197;-71
2023/12/02 07:27:26;;;;;;;0.70;0.70;;;-7.50;99.90;;;;;;5070952;28;20241;-71
2023/12/02 07:29:51;;;;;;;0.80;0.80;;;-7.50;99.90;;;;;;5075136;28;20249;-72
2023/12/02 07:32:17;;;;;;;0.80;0.80;;;-7.50;99.90;;;;;;5075314;28;20207;-71
2023/12/02 07:34:43;;;;;;;0.80;0.80;;;-7.50;99.90;;;;;;5073819;28;20203;-71
2023/12/02 07:37:08;;;;;;;0.80;0.80;;;-7.50;99.90;;;;;;5075019;28;20202;-68
2023/12/02 07:39:34;;;;;;;0.87;0.87;;;-7.50;99.90;;;;;;5073581;28;20288;-67
2023/12/02 07:42:00;;;;;;;0.90;0.90;;;-7.50;99.90;;;;;;5073529;28;20203;-68
2023/12/02 07:44:25;;;;;;;0.80;0.80;;;-7.60;99.90;;;;;;5074591;28;20573;-68
2023/12/02 07:46:51;;;;;;;0.90;0.90;;;-7.60;99.90;;;;;;5075022;28;20203;-68
2023/12/02 07:49:16;;;;;;;0.80;0.80;;;-7.50;99.90;;;;;;5073731;28;20219;-67
2023/12/02 07:51:42;;;;;;;0.73;0.73;;;-7.60;99.90;;;;;;5074399;28;20240;-69
2023/12/02 07:54:08;;;;;;;1.03;1.00;;;-7.60;99.90;;;;;;5074900;28;20246;-68
2023/12/02 07:56:35;;;;;;;0.80;0.80;;;-7.60;99.90;;;;;;5074979;28;20220;-68
2023/12/02 07:59:00;;;;;;;0.90;0.90;;;-7.60;99.90;;;;;;5074974;28;20192;-68
2023/12/02 08:01:26;;;;;;;0.90;0.90;;;-7.60;99.90;;;;;;5075451;28;20206;-69
2023/12/02 08:03:52;;;;;;;0.80;0.80;;;-7.60;99.90;;;;;;5074912;28;20701;-68
2023/12/02 08:06:19;;;;;;;1.03;1.03;;;-7.60;99.90;;;;;;5075075;28;20232;-68
2023/12/02 08:08:45;;;;;;;0.90;0.90;;;-7.60;99.90;;;;;;5073304;28;20224;-68
2023/12/02 08:11:11;;;;;;;0.90;0.90;;;-7.60;99.90;;;;;;5074943;28;20670;-68
2023/12/02 08:13:37;;;;;;;0.90;0.90;;;-7.60;99.90;;;;;;5075187;28;20201;-69
2023/12/02 08:16:02;;;;;;;0.90;0.90;;;-7.60;99.90;;;;;;5074812;28;20205;-68
2023/12/02 08:18:28;;;;;;;0.90;0.90;;;-7.60;99.90;;;;;;5074597;28;20232;-68
2023/12/02 08:20:54;;;;;;;0.90;0.90;;;-7.60;99.90;;;;;;5074876;28;20201;-69
2023/12/02 08:23:19;;;;;;;0.90;0.90;;;-7.50;99.90;;;;;;5074568;28;20208;-68
2023/12/02 08:25:45;;;;;;;0.87;0.87;;;-7.60;99.90;;;;;;5071082;28;20208;-69
2023/12/02 08:28:11;;;;;;;0.93;0.93;;;-7.60;99.90;;;;;;5070135;28;20200;-68
2023/12/02 08:30:36;;;;;;;0.80;0.80;;;-7.60;99.90;;;;;;5071285;28;20310;-70
2023/12/02 08:33:03;;;;;;;0.90;0.90;;;-7.60;99.90;;;;;;5071593;28;20230;-69
2023/12/02 08:35:29;;;;;;;0.90;0.90;;;-7.50;99.90;;;;;;5052060;28;20201;-69
2023/12/02 08:37:54;;;;;;;0.87;0.87;;;-7.50;99.90;;;;;;5062508;28;20607;-70
2023/12/02 08:40:20;;;;;;;1.00;1.00;;;-7.50;99.90;;;;;;5069997;28;20197;-68
2023/12/02 08:42:45;;;;;;;0.80;0.80;;;-7.50;99.90;;;;;;5071487;28;20209;-69
2023/12/02 08:45:11;;;;;;;0.90;0.90;;;-7.50;99.90;;;;;;5071509;28;20648;-69
2023/12/02 08:47:37;;;;;;;0.73;0.73;;;-7.50;99.90;;;;;;5070208;28;20221;-71
2023/12/02 08:50:03;;;;;;;0.80;0.80;;;-7.50;99.90;;;;;;5071180;28;20672;-72
2023/12/02 08:52:29;;;;;;;0.80;0.80;;;-7.50;99.90;;;;;;5070955;28;20730;-72
2023/12/02 08:54:54;;;;;;;0.90;0.90;;;-7.40;99.90;;;;;;5071281;28;20220;-71
2023/12/02 08:57:20;;;;;;;0.90;0.90;;;-7.40;99.90;;;;;;5070893;28;20196;-72
2023/12/02 08:59:45;;;;;;;0.70;0.70;;;-7.50;99.90;;;;;;5059291;28;20194;-72
2023/12/02 09:02:38;;;;;;;0.90;0.90;;;-7.50;99.90;;;;;;5052760;28;20616;-72
2023/12/02 09:05:05;;;;;;;0.90;0.90;;;-7.50;99.90;;;;;;5052638;28;20221;-72
2023/12/02 09:07:30;;;;;;;0.90;0.90;;;-7.40;99.90;;;;;;5049382;28;20200;-73
2023/12/02 09:09:57;;;;;;;0.90;0.90;;;-7.40;99.90;;;;;;5050729;28;20201;-73
2023/12/02 09:12:22;;;;;;;0.90;0.90;;;-7.40;99.90;;;;;;5065695;28;20193;-73
2023/12/02 09:15:07;;;;;;;0.90;0.90;;;-7.40;99.90;;;;;;5073212;28;20201;-71
2023/12/02 09:18:01;;;;;;;1.00;1.00;;;-7.40;99.90;;;;;;5073441;28;20782;-72
2023/12/02 09:20:35;;;;;;;0.87;0.87;;;-7.40;99.90;;;;;;5050598;28;20221;-72
2023/12/02 09:23:01;;;;;;;0.87;0.87;;;-7.40;99.90;;;;;;5050816;28;20196;-73
2023/12/02 09:25:34;;;;;;;2.40;2.20;;;-7.40;99.90;;;;;;5049336;28;20202;-71
2023/12/02 09:28:06;;;;;;;0.87;0.87;;;-7.40;99.90;;;;;;5050587;28;20204;-72
2023/12/02 09:30:36;;;;;;;0.80;0.80;;;-7.40;99.90;;;;;;5050312;28;20665;-73
2023/12/02 09:33:05;;;;;;;1.00;1.00;;;-7.40;99.90;;;;;;5050288;28;20268;-73
2023/12/02 09:35:35;;;;;;;0.90;0.90;;;-7.40;99.90;;;;;;5051599;28;20197;-71
2023/12/02 09:38:02;;;;;;;0.90;0.90;;;-7.50;99.90;;;;;;5068206;28;20288;-67
2023/12/02 09:40:59;;;;;;;0.90;0.90;;;-7.50;99.90;;;;;;5070057;28;20204;-66
2023/12/02 09:43:39;;;;;;;0.90;0.90;;;-7.50;99.90;;;;;;5069979;28;20198;-66
2023/12/02 09:46:36;;;;;;;0.90;0.90;;;-7.50;99.90;;;;;;5071400;28;20215;-67
2023/12/02 09:49:53;;;;;;;0.77;0.77;;;-7.50;99.90;;;;;;5070052;28;20580;-67
2023/12/02 09:52:24;;;;;;;0.80;0.80;;;-7.50;99.90;;;;;;5060142;28;20220;-67
2023/12/02 09:54:53;;;;;;;0.80;0.80;;;-7.50;99.90;;;;;;5069715;28;20193;-69
2023/12/02 09:57:50;;;;;;;0.80;0.80;;;-7.50;99.90;;;;;;5070027;28;20841;-66
2023/12/02 10:00:35;;;;;;;0.83;0.83;;;-7.50;99.90;;;;;;5069968;28;20656;-66
2023/12/02 10:03:39;;;;;;;0.80;0.80;;;-7.50;99.90;;;;;;5069879;28;20386;-68
2023/12/02 10:06:23;;;;;;;0.90;0.90;;;-7.50;99.90;;;;;;5069446;28;20196;-67
2023/12/02 10:09:31;;;;;;;0.80;0.80;;;-7.50;99.90;;;;;;5052963;28;20209;-67
2023/12/02 10:12:30;;;;;;;0.90;0.90;;;-7.40;99.90;;;;;;5049656;28;20630;-66
2023/12/02 10:15:07;;;;;;;0.90;0.90;;;-7.40;99.90;;;;;;5053400;28;20227;-68
2023/12/02 10:17:40;;;;;;;0.83;0.83;;;-7.30;99.90;;;;;;5069388;28;20204;-67
2023/12/02 10:20:11;;;;;;;0.90;0.90;;;-7.40;99.90;;;;;;5069338;28;20196;-67
2023/12/02 10:22:44;;;;;;;0.83;0.83;;;-7.40;99.90;;;;;;5067775;28;20679;-67
2023/12/02 10:25:38;;;;;;;0.87;0.87;;;-7.40;99.90;;;;;;5069377;28;20271;-67
2023/12/02 10:28:15;;;;;;;0.90;0.90;;;-7.40;99.90;;;;;;5065268;28;20239;-68
2023/12/02 10:30:49;;;;;;;0.90;0.90;;;-7.40;99.90;;;;;;5069123;28;20627;-67
2023/12/02 10:33:32;;;;;;;1.30;1.20;;;-7.40;99.90;;;;;;5060562;28;20205;-67
2023/12/02 10:36:21;;;;;;;0.90;0.90;;;-7.40;99.90;;;;;;5070328;28;20203;-68
2023/12/02 10:39:10;;;;;;;0.90;0.90;;;-7.40;99.90;;;;;;5049823;28;20209;-65
2023/12/02 10:41:43;;;;;;;0.83;0.83;;;-7.40;99.90;;;;;;5069192;28;20280;-65
2023/12/02 10:44:10;;;;;;;0.90;0.90;;;-7.30;99.90;;;;;;5069071;28;20196;-66
2023/12/02 10:46:39;;;;;;;0.90;0.90;;;-7.30;99.90;;;;;;5068831;28;20189;-66
2023/12/02 10:49:05;;;;;;;0.90;0.90;;;-7.30;99.90;;;;;;5068204;28;20771;-65
2023/12/02 10:51:39;;;;;;;2.33;2.13;;;-7.30;99.90;;;;;;5071225;28;20256;-67
2023/12/02 10:55:01;;;;;;;0.80;0.80;;;-7.20;99.90;;;;;;5068264;28;20756;-67
2023/12/02 10:57:27;;;;;;;0.80;0.80;;;-7.10;99.90;;;;;;5072577;28;20193;-66
2023/12/02 11:00:07;;;;;;;0.80;0.80;;;-7.00;99.90;;;;;;5068997;28;20193;-66
2023/12/02 11:02:52;;;;;;;0.90;0.90;;;-7.00;99.90;;;;;;5068672;28;20197;-67
2023/12/02 11:05:23;;;;;;;0.80;0.80;;;-6.90;99.90;;;;;;5048592;28;20737;-68
2023/12/02 11:07:58;;;;;;;2.87;2.60;;;-7.00;99.90;;;;;;5048926;28;20197;-69
2023/12/02 11:10:34;;;;;;;0.87;0.87;;;-6.90;99.90;;;;;;5048469;28;20243;-69
2023/12/02 11:13:28;;;;;;;0.83;0.83;;;-6.90;99.90;;;;;;5050422;28;20193;-69
2023/12/02 11:16:12;;;;;;;0.80;0.80;;;-6.80;99.90;;;;;;5046379;28;20645;-68
2023/12/02 11:19:15;;;;;;;0.90;0.90;;;-6.80;99.90;;;;;;5047532;28;20269;-68
2023/12/02 11:22:37;;;;;;;0.90;0.90;;;-6.70;99.90;;;;;;5048624;28;20283;-69
2023/12/02 11:25:28;;;;;;;0.80;0.80;;;-6.50;99.90;;;;;;5031660;28;20218;-69
2023/12/02 11:27:59;;;;;;;9.50;2.40;;;-6.50;99.90;;;;;;5028296;28;20202;-70
2023/12/02 11:30:36;;;;;;;0.90;0.90;;;-6.50;99.90;;;;;;5060960;28;20312;-69
2023/12/02 11:33:28;;;;;;;1.00;1.00;;;-6.50;99.90;;;;;;5045936;28;20212;-70
2023/12/02 11:36:12;;;;;;;0.87;0.87;;;-6.50;99.90;;;;;;5028991;28;20271;-70
2023/12/02 11:39:16;;;;;;;0.80;0.80;;;-6.60;99.90;;;;;;5045445;28;20606;-69
2023/12/02 11:41:55;;;;;;;1.00;1.00;;;-6.60;99.90;;;;;;4986546;28;20211;-69
2023/12/02 11:44:40;;;;;;;1.00;1.00;;;-6.60;99.90;;;;;;5038741;28;20213;-68
2023/12/02 11:47:43;;;;;;;0.90;0.90;;;-6.70;99.90;;;;;;5049737;28;20209;-70
2023/12/02 11:51:01;;;;;;;0.90;0.90;;;-6.70;99.90;;;;;;4999584;28;20662;-68
2023/12/02 11:53:45;;;;;;;0.80;0.80;;;-6.70;99.90;;;;;;5045366;28;20230;-68
2023/12/02 11:56:13;;;;;;;0.80;0.80;;;-6.70;99.90;;;;;;5028992;28;20714;-67
2023/12/02 11:58:52;;;;;;;0.90;0.90;;;-6.70;99.90;;;;;;5032077;28;20197;-69
2023/12/02 12:01:21;;;;;;;0.90;0.90;;;-6.80;99.90;;;;;;5060578;28;20205;-68
2023/12/02 12:04:59;;;;;;;0.80;0.80;;;-6.80;99.90;;;;;;5075684;28;20708;-71
2023/12/02 12:07:58;;;;;;;0.90;0.90;;;-6.90;99.90;;;;;;5069647;28;20217;-68
2023/12/02 12:10:53;;;;;;;0.90;0.90;;;-6.90;99.90;;;;;;5050264;28;20244;-69
2023/12/02 12:13:21;;;;;;;1.10;1.10;;;-6.90;99.90;;;;;;5082429;28;20319;-70
2023/12/02 12:15:47;;;;;;;1.10;1.10;;;-6.90;99.90;;;;;;5051845;28;20197;-70
2023/12/02 12:18:13;;;;;;;0.90;0.90;;;-6.90;99.90;;;;;;5052010;28;20202;-72
2023/12/02 12:20:42;;;;;;;0.83;0.83;;;-6.90;99.90;;;;;;5050102;28;20824;-73
2023/12/02 12:23:08;;;;;;;0.90;0.90;;;-6.90;99.90;;;;;;5054441;28;20206;-71
2023/12/02 12:25:35;;;;;;;0.90;0.90;;;-6.90;99.90;;;;;;5051389;28;20247;-71
2023/12/02 12:28:05;;;;;;;0.80;0.80;;;-6.90;99.90;;;;;;5074995;28;20866;-71
2023/12/02 12:30:47;;;;;;;0.80;0.80;;;-7.00;99.90;;;;;;5074283;28;20616;-71
2023/12/02 12:33:16;;;;;;;0.80;0.80;;;-7.00;99.90;;;;;;5071585;28;20189;-71
2023/12/02 12:35:42;;;;;;;1.13;1.13;;;-7.00;99.90;;;;;;5071365;28;20193;-71
2023/12/02 12:38:09;;;;;;;0.80;0.80;;;-7.10;99.90;;;;;;5071035;28;20205;-71
2023/12/02 12:40:45;;;;;;;0.90;0.90;;;-7.30;99.90;;;;;;5074436;28;20200;-73
2023/12/02 12:43:14;;;;;;;0.87;0.87;;;-7.40;99.90;;;;;;5071236;28;20199;-72
2023/12/02 12:46:16;;;;;;;0.80;0.80;;;-7.40;99.90;;;;;;5076304;28;20322;-73
2023/12/02 12:49:15;;;;;;;0.90;0.90;;;-7.40;99.90;;;;;;5074008;28;20209;-73
2023/12/02 12:51:43;;;;;;;0.83;0.83;;;-7.40;99.90;;;;;;5070685;28;20224;-70
2023/12/02 12:54:14;;;;;;;1.07;1.07;;;-7.40;99.90;;;;;;5071439;28;20195;-71
2023/12/02 12:56:39;;;;;;;0.90;0.90;;;-7.40;99.90;;;;;;5070626;28;20197;-70
2023/12/02 12:59:13;;;;;;;1.47;1.37;;;-7.50;99.90;;;;;;5071216;28;20276;-70
2023/12/02 13:02:06;;;;;;;0.90;0.90;;;-7.50;99.90;;;;;;5070889;28;20243;-71
2023/12/02 13:04:36;;;;;;;0.80;0.80;;;-7.50;99.90;;;;;;5066553;28;20221;-70